sensor_id;sensor_type;location;lat;lon;timestamp;temperature;humidity
30379;DHT22;17168;49.164;9.060;2023-04-25T00:00:54;10.20;90.40
30379;DHT22;17168;49.164;9.060;2023-04-25T00:03:27;10.20;90.70
30379;DHT22;17168;49.164;9.060;2023-04-25T00:05:59;10.10;90.90
30379;DHT22;17168;49.164;9.060;2023-04-25T00:08:36;10.10;91.20
30379;DHT22;17168;49.164;9.060;2023-04-25T00:11:09;10.10;91.60
30379;DHT22;17168;49.164;9.060;2023-04-25T00:13:41;10.10;92.00
30379;DHT22;17168;49.164;9.060;2023-04-25T00:16:13;10.20;93.00
30379;DHT22;17168;49.164;9.060;2023-04-25T00:18:47;10.20;94.10
30379;DHT22;17168;49.164;9.060;2023-04-25T00:21:23;10.20;94.70
30379;DHT22;17168;49.164;9.060;2023-04-25T00:23:59;10.20;95.20
30379;DHT22;17168;49.164;9.060;2023-04-25T00:26:31;10.20;95.70
30379;DHT22;17168;49.164;9.060;2023-04-25T00:29:03;10.20;96.30
30379;DHT22;17168;49.164;9.060;2023-04-25T00:31:35;10.20;96.80
30379;DHT22;17168;49.164;9.060;2023-04-25T00:34:07;10.20;97.50
30379;DHT22;17168;49.164;9.060;2023-04-25T00:36:40;10.20;98.20
30379;DHT22;17168;49.164;9.060;2023-04-25T00:39:15;10.20;99.00
30379;DHT22;17168;49.164;9.060;2023-04-25T00:41:48;10.20;99.70
30379;DHT22;17168;49.164;9.060;2023-04-25T00:44:20;10.20;99.90
30379;DHT22;17168;49.164;9.060;2023-04-25T00:46:53;10.30;99.90
30379;DHT22;17168;49.164;9.060;2023-04-25T00:49:25;10.30;99.90
30379;DHT22;17168;49.164;9.060;2023-04-25T00:54:33;10.20;99.90
30379;DHT22;17168;49.164;9.060;2023-04-25T00:57:05;10.20;99.90
30379;DHT22;17168;49.164;9.060;2023-04-25T00:59:38;10.20;99.90
30379;DHT22;17168;49.164;9.060;2023-04-25T01:02:10;10.20;99.90
30379;DHT22;17168;49.164;9.060;2023-04-25T01:04:42;10.20;99.90
30379;DHT22;17168;49.164;9.060;2023-04-25T01:07:15;10.20;99.90
30379;DHT22;17168;49.164;9.060;2023-04-25T01:09:51;10.20;99.90
30379;DHT22;17168;49.164;9.060;2023-04-25T01:12:24;10.20;99.90
30379;DHT22;17168;49.164;9.060;2023-04-25T01:14:56;10.20;99.90
30379;DHT22;17168;49.164;9.060;2023-04-25T01:17:29;10.20;99.90
30379;DHT22;17168;49.164;9.060;2023-04-25T01:20:03;10.20;99.90
30379;DHT22;17168;49.164;9.060;2023-04-25T01:22:38;10.20;99.90
30379;DHT22;17168;49.164;9.060;2023-04-25T01:25:10;10.20;99.90
30379;DHT22;17168;49.164;9.060;2023-04-25T01:27:42;10.10;99.90
30379;DHT22;17168;49.164;9.060;2023-04-25T01:30:15;10.20;99.90
30379;DHT22;17168;49.164;9.060;2023-04-25T01:32:47;10.10;99.90
30379;DHT22;17168;49.164;9.060;2023-04-25T01:35:20;10.10;99.90
30379;DHT22;17168;49.164;9.060;2023-04-25T01:37:54;10.10;99.90
30379;DHT22;17168;49.164;9.060;2023-04-25T01:40:27;10.20;99.90
30379;DHT22;17168;49.164;9.060;2023-04-25T01:42:59;10.10;99.90
30379;DHT22;17168;49.164;9.060;2023-04-25T01:45:31;10.10;99.90
30379;DHT22;17168;49.164;9.060;2023-04-25T01:48:05;10.10;99.90
30379;DHT22;17168;49.164;9.060;2023-04-25T01:50:37;10.10;99.90
30379;DHT22;17168;49.164;9.060;2023-04-25T01:53:13;10.10;99.90
30379;DHT22;17168;49.164;9.060;2023-04-25T01:55:45;10.10;99.90
30379;DHT22;17168;49.164;9.060;2023-04-25T01:58:17;10.00;99.90
30379;DHT22;17168;49.164;9.060;2023-04-25T02:00:49;10.00;99.90
30379;DHT22;17168;49.164;9.060;2023-04-25T02:03:21;10.00;99.90
30379;DHT22;17168;49.164;9.060;2023-04-25T02:05:54;10.00;99.90
30379;DHT22;17168;49.164;9.060;2023-04-25T02:08:28;10.00;99.90
30379;DHT22;17168;49.164;9.060;2023-04-25T02:11:02;10.00;99.90
30379;DHT22;17168;49.164;9.060;2023-04-25T02:13:35;10.00;99.90
30379;DHT22;17168;49.164;9.060;2023-04-25T02:16:07;10.00;99.90
30379;DHT22;17168;49.164;9.060;2023-04-25T02:18:39;10.00;99.90
30379;DHT22;17168;49.164;9.060;2023-04-25T02:21:11;10.00;99.90
30379;DHT22;17168;49.164;9.060;2023-04-25T02:23:46;10.00;99.90
30379;DHT22;17168;49.164;9.060;2023-04-25T02:26:21;10.00;99.90
30379;DHT22;17168;49.164;9.060;2023-04-25T02:28:53;10.00;99.90
30379;DHT22;17168;49.164;9.060;2023-04-25T02:31:25;10.00;99.90
30379;DHT22;17168;49.164;9.060;2023-04-25T02:33:57;10.00;99.90
30379;DHT22;17168;49.164;9.060;2023-04-25T02:36:30;10.00;99.90
30379;DHT22;17168;49.164;9.060;2023-04-25T02:39:06;10.00;99.90
30379;DHT22;17168;49.164;9.060;2023-04-25T02:41:38;10.00;99.90
30379;DHT22;17168;49.164;9.060;2023-04-25T02:44:10;10.00;99.90
30379;DHT22;17168;49.164;9.060;2023-04-25T02:46:42;10.00;99.90
30379;DHT22;17168;49.164;9.060;2023-04-25T02:49:15;10.00;99.90
30379;DHT22;17168;49.164;9.060;2023-04-25T02:51:47;9.90;99.90
30379;DHT22;17168;49.164;9.060;2023-04-25T02:54:22;10.00;99.90
30379;DHT22;17168;49.164;9.060;2023-04-25T02:56:54;9.90;99.90
30379;DHT22;17168;49.164;9.060;2023-04-25T02:59:26;9.90;99.90
30379;DHT22;17168;49.164;9.060;2023-04-25T03:01:58;10.00;99.90
30379;DHT22;17168;49.164;9.060;2023-04-25T03:04:30;10.00;99.90
30379;DHT22;17168;49.164;9.060;2023-04-25T03:07:04;9.90;99.90
30379;DHT22;17168;49.164;9.060;2023-04-25T03:09:38;10.00;99.90
30379;DHT22;17168;49.164;9.060;2023-04-25T03:12:11;10.00;99.90
30379;DHT22;17168;49.164;9.060;2023-04-25T03:14:43;10.00;99.90
30379;DHT22;17168;49.164;9.060;2023-04-25T03:17:15;9.90;99.90
30379;DHT22;17168;49.164;9.060;2023-04-25T03:19:47;9.90;99.90
30379;DHT22;17168;49.164;9.060;2023-04-25T03:22:20;9.90;99.90
30379;DHT22;17168;49.164;9.060;2023-04-25T03:24:55;9.90;99.90
30379;DHT22;17168;49.164;9.060;2023-04-25T03:27:27;9.90;99.90
30379;DHT22;17168;49.164;9.060;2023-04-25T03:29:59;9.90;99.90
30379;DHT22;17168;49.164;9.060;2023-04-25T03:32:31;9.90;99.90
30379;DHT22;17168;49.164;9.060;2023-04-25T03:35:04;9.80;99.90
30379;DHT22;17168;49.164;9.060;2023-04-25T03:37:37;9.90;99.90
30379;DHT22;17168;49.164;9.060;2023-04-25T03:40:12;9.80;99.90
30379;DHT22;17168;49.164;9.060;2023-04-25T03:42:44;9.80;99.90
30379;DHT22;17168;49.164;9.060;2023-04-25T03:45:16;9.80;99.90
30379;DHT22;17168;49.164;9.060;2023-04-25T03:47:48;9.80;99.90
30379;DHT22;17168;49.164;9.060;2023-04-25T03:50:20;9.80;99.90
30379;DHT22;17168;49.164;9.060;2023-04-25T03:52:52;9.80;99.90
30379;DHT22;17168;49.164;9.060;2023-04-25T03:55:27;9.80;99.90
30379;DHT22;17168;49.164;9.060;2023-04-25T03:57:59;9.70;99.90
30379;DHT22;17168;49.164;9.060;2023-04-25T04:00:31;9.70;99.90
30379;DHT22;17168;49.164;9.060;2023-04-25T04:03:03;9.70;99.90
30379;DHT22;17168;49.164;9.060;2023-04-25T04:05:36;9.70;99.90
30379;DHT22;17168;49.164;9.060;2023-04-25T04:08:09;9.70;99.90
30379;DHT22;17168;49.164;9.060;2023-04-25T04:10:43;9.70;99.90
30379;DHT22;17168;49.164;9.060;2023-04-25T04:13:16;9.70;99.90
30379;DHT22;17168;49.164;9.060;2023-04-25T04:15:48;9.70;99.90
30379;DHT22;17168;49.164;9.060;2023-04-25T04:18:20;9.60;99.90
30379;DHT22;17168;49.164;9.060;2023-04-25T04:20:52;9.60;99.90
30379;DHT22;17168;49.164;9.060;2023-04-25T04:23:24;9.60;99.90
30379;DHT22;17168;49.164;9.060;2023-04-25T04:25:59;9.60;99.90
30379;DHT22;17168;49.164;9.060;2023-04-25T04:28:31;9.60;99.90
30379;DHT22;17168;49.164;9.060;2023-04-25T04:31:03;9.60;99.90
30379;DHT22;17168;49.164;9.060;2023-04-25T04:33:35;9.60;99.90
30379;DHT22;17168;49.164;9.060;2023-04-25T04:36:08;9.60;99.90
30379;DHT22;17168;49.164;9.060;2023-04-25T04:38:41;10.40;99.90
30379;DHT22;17168;49.164;9.060;2023-04-25T04:41:16;9.50;99.90
30379;DHT22;17168;49.164;9.060;2023-04-25T04:43:48;9.50;99.90
30379;DHT22;17168;49.164;9.060;2023-04-25T04:46:21;9.50;99.90
30379;DHT22;17168;49.164;9.060;2023-04-25T04:48:53;9.50;99.90
30379;DHT22;17168;49.164;9.060;2023-04-25T04:51:25;9.50;99.90
30379;DHT22;17168;49.164;9.060;2023-04-25T04:53:58;9.50;99.90
30379;DHT22;17168;49.164;9.060;2023-04-25T04:56:36;9.50;99.90
30379;DHT22;17168;49.164;9.060;2023-04-25T04:59:08;9.40;99.90
30379;DHT22;17168;49.164;9.060;2023-04-25T05:01:40;9.50;99.90
30379;DHT22;17168;49.164;9.060;2023-04-25T05:04:12;9.50;99.90
30379;DHT22;17168;49.164;9.060;2023-04-25T05:06:45;9.50;99.90
30379;DHT22;17168;49.164;9.060;2023-04-25T05:09:19;9.50;99.90
30379;DHT22;17168;49.164;9.060;2023-04-25T05:11:54;9.60;99.90
30379;DHT22;17168;49.164;9.060;2023-04-25T05:14:26;9.60;99.90
30379;DHT22;17168;49.164;9.060;2023-04-25T05:16:58;9.60;99.90
30379;DHT22;17168;49.164;9.060;2023-04-25T05:19:32;9.60;99.90
30379;DHT22;17168;49.164;9.060;2023-04-25T05:22:04;9.60;99.90
30379;DHT22;17168;49.164;9.060;2023-04-25T05:24:36;9.60;99.90
30379;DHT22;17168;49.164;9.060;2023-04-25T05:27:11;9.70;99.90
30379;DHT22;17168;49.164;9.060;2023-04-25T05:29:43;9.60;99.90
30379;DHT22;17168;49.164;9.060;2023-04-25T05:32:15;9.70;99.90
30379;DHT22;17168;49.164;9.060;2023-04-25T05:34:47;9.60;99.90
30379;DHT22;17168;49.164;9.060;2023-04-25T05:37:20;9.60;99.90
30379;DHT22;17168;49.164;9.060;2023-04-25T05:39:52;9.60;99.90
30379;DHT22;17168;49.164;9.060;2023-04-25T05:42:27;9.60;99.90
30379;DHT22;17168;49.164;9.060;2023-04-25T05:44:59;9.70;99.90
30379;DHT22;17168;49.164;9.060;2023-04-25T05:47:32;9.70;99.90
30379;DHT22;17168;49.164;9.060;2023-04-25T05:50:06;9.70;99.90
30379;DHT22;17168;49.164;9.060;2023-04-25T05:52:44;9.70;99.90
30379;DHT22;17168;49.164;9.060;2023-04-25T05:55:16;9.80;99.90
30379;DHT22;17168;49.164;9.060;2023-04-25T05:57:51;9.70;99.90
30379;DHT22;17168;49.164;9.060;2023-04-25T06:00:23;9.70;99.90
30379;DHT22;17168;49.164;9.060;2023-04-25T06:02:55;9.80;99.90
30379;DHT22;17168;49.164;9.060;2023-04-25T06:05:28;9.80;99.90
30379;DHT22;17168;49.164;9.060;2023-04-25T06:08:01;9.90;99.90
30379;DHT22;17168;49.164;9.060;2023-04-25T06:10:33;9.90;99.90
30379;DHT22;17168;49.164;9.060;2023-04-25T06:13:12;9.90;99.90
30379;DHT22;17168;49.164;9.060;2023-04-25T06:15:44;9.90;99.90
30379;DHT22;17168;49.164;9.060;2023-04-25T06:18:23;9.90;99.90
30379;DHT22;17168;49.164;9.060;2023-04-25T06:20:55;10.00;99.90
30379;DHT22;17168;49.164;9.060;2023-04-25T06:23:27;10.00;99.90
30379;DHT22;17168;49.164;9.060;2023-04-25T06:26:08;10.00;99.90
30379;DHT22;17168;49.164;9.060;2023-04-25T06:28:44;10.00;99.90
30379;DHT22;17168;49.164;9.060;2023-04-25T06:31:17;10.10;99.90
30379;DHT22;17168;49.164;9.060;2023-04-25T06:33:49;10.10;99.90
30379;DHT22;17168;49.164;9.060;2023-04-25T06:36:21;10.20;99.90
30379;DHT22;17168;49.164;9.060;2023-04-25T06:38:56;10.30;99.90
30379;DHT22;17168;49.164;9.060;2023-04-25T06:41:29;10.30;99.90
30379;DHT22;17168;49.164;9.060;2023-04-25T06:44:03;10.40;99.90
30379;DHT22;17168;49.164;9.060;2023-04-25T06:46:35;10.40;99.90
30379;DHT22;17168;49.164;9.060;2023-04-25T06:49:08;10.40;99.90
30379;DHT22;17168;49.164;9.060;2023-04-25T06:51:41;10.50;99.90
30379;DHT22;17168;49.164;9.060;2023-04-25T06:54:13;10.50;99.90
30379;DHT22;17168;49.164;9.060;2023-04-25T06:56:45;10.50;99.90
30379;DHT22;17168;49.164;9.060;2023-04-25T06:59:20;10.50;99.90
30379;DHT22;17168;49.164;9.060;2023-04-25T07:01:52;10.60;99.90
30379;DHT22;17168;49.164;9.060;2023-04-25T07:04:24;10.50;99.90
30379;DHT22;17168;49.164;9.060;2023-04-25T07:07:03;10.60;99.90
30379;DHT22;17168;49.164;9.060;2023-04-25T07:09:35;10.60;99.90
30379;DHT22;17168;49.164;9.060;2023-04-25T07:12:07;10.60;99.90
30379;DHT22;17168;49.164;9.060;2023-04-25T07:14:44;10.70;99.90
30379;DHT22;17168;49.164;9.060;2023-04-25T07:17:16;10.70;99.90
30379;DHT22;17168;49.164;9.060;2023-04-25T07:19:48;10.70;99.90
30379;DHT22;17168;49.164;9.060;2023-04-25T07:22:21;10.80;99.90
30379;DHT22;17168;49.164;9.060;2023-04-25T07:24:53;10.80;99.90
30379;DHT22;17168;49.164;9.060;2023-04-25T07:27:28;10.80;99.90
30379;DHT22;17168;49.164;9.060;2023-04-25T07:30:04;10.90;99.90
30379;DHT22;17168;49.164;9.060;2023-04-25T07:32:36;10.90;99.90
30379;DHT22;17168;49.164;9.060;2023-04-25T07:35:15;10.90;99.90
30379;DHT22;17168;49.164;9.060;2023-04-25T07:37:47;11.00;99.90
30379;DHT22;17168;49.164;9.060;2023-04-25T07:40:27;11.00;99.90
30379;DHT22;17168;49.164;9.060;2023-04-25T07:42:59;11.00;99.90
30379;DHT22;17168;49.164;9.060;2023-04-25T07:45:34;11.00;99.90
30379;DHT22;17168;49.164;9.060;2023-04-25T07:48:06;11.00;99.90
30379;DHT22;17168;49.164;9.060;2023-04-25T07:50:38;11.00;99.90
30379;DHT22;17168;49.164;9.060;2023-04-25T07:53:11;11.10;99.90
30379;DHT22;17168;49.164;9.060;2023-04-25T07:55:43;11.10;99.90
30379;DHT22;17168;49.164;9.060;2023-04-25T07:58:15;11.10;99.90
30379;DHT22;17168;49.164;9.060;2023-04-25T08:00:55;11.10;99.90
30379;DHT22;17168;49.164;9.060;2023-04-25T08:03:27;11.20;99.90
30379;DHT22;17168;49.164;9.060;2023-04-25T08:06:00;11.20;99.90
30379;DHT22;17168;49.164;9.060;2023-04-25T08:08:35;11.20;99.90
30379;DHT22;17168;49.164;9.060;2023-04-25T08:11:08;11.30;99.90
30379;DHT22;17168;49.164;9.060;2023-04-25T08:13:40;11.30;99.90
30379;DHT22;17168;49.164;9.060;2023-04-25T08:16:15;11.30;99.90
30379;DHT22;17168;49.164;9.060;2023-04-25T08:18:50;11.30;99.90
30379;DHT22;17168;49.164;9.060;2023-04-25T08:21:23;11.40;99.90
30379;DHT22;17168;49.164;9.060;2023-04-25T08:23:55;11.40;99.90
30379;DHT22;17168;49.164;9.060;2023-04-25T08:26:32;11.50;99.90
30379;DHT22;17168;49.164;9.060;2023-04-25T08:29:05;11.50;99.90
30379;DHT22;17168;49.164;9.060;2023-04-25T08:31:40;11.50;99.90
30379;DHT22;17168;49.164;9.060;2023-04-25T08:34:12;11.60;99.90
30379;DHT22;17168;49.164;9.060;2023-04-25T08:36:44;11.60;99.90
30379;DHT22;17168;49.164;9.060;2023-04-25T08:39:17;11.60;99.90
30379;DHT22;17168;49.164;9.060;2023-04-25T08:41:53;11.60;99.90
30379;DHT22;17168;49.164;9.060;2023-04-25T08:44:25;11.70;99.90
30379;DHT22;17168;49.164;9.060;2023-04-25T08:47:02;11.60;99.90
30379;DHT22;17168;49.164;9.060;2023-04-25T08:49:35;11.70;99.90
30379;DHT22;17168;49.164;9.060;2023-04-25T08:52:08;11.70;99.90
30379;DHT22;17168;49.164;9.060;2023-04-25T08:54:43;11.60;99.90
30379;DHT22;17168;49.164;9.060;2023-04-25T08:57:18;11.60;99.90
30379;DHT22;17168;49.164;9.060;2023-04-25T08:59:52;11.60;99.90
30379;DHT22;17168;49.164;9.060;2023-04-25T09:02:30;11.60;99.90
30379;DHT22;17168;49.164;9.060;2023-04-25T09:05:03;11.60;99.90
30379;DHT22;17168;49.164;9.060;2023-04-25T09:07:36;11.60;99.90
30379;DHT22;17168;49.164;9.060;2023-04-25T09:10:09;11.50;99.90
30379;DHT22;17168;49.164;9.060;2023-04-25T09:12:43;11.50;99.90
30379;DHT22;17168;49.164;9.060;2023-04-25T09:15:15;11.40;99.90
30379;DHT22;17168;49.164;9.060;2023-04-25T09:17:59;11.30;99.90
30379;DHT22;17168;49.164;9.060;2023-04-25T09:20:41;11.10;99.90
30379;DHT22;17168;49.164;9.060;2023-04-25T09:23:18;11.00;99.90
30379;DHT22;17168;49.164;9.060;2023-04-25T09:25:53;10.80;99.90
30379;DHT22;17168;49.164;9.060;2023-04-25T09:28:40;10.60;99.90
30379;DHT22;17168;49.164;9.060;2023-04-25T09:31:20;10.50;99.90
30379;DHT22;17168;49.164;9.060;2023-04-25T09:34:01;10.40;99.90
30379;DHT22;17168;49.164;9.060;2023-04-25T09:36:34;10.30;99.90
30379;DHT22;17168;49.164;9.060;2023-04-25T09:39:12;10.20;99.90
30379;DHT22;17168;49.164;9.060;2023-04-25T09:41:47;10.20;99.90
30379;DHT22;17168;49.164;9.060;2023-04-25T09:44:23;10.10;99.90
30379;DHT22;17168;49.164;9.060;2023-04-25T09:46:56;10.10;99.90
30379;DHT22;17168;49.164;9.060;2023-04-25T09:49:31;10.00;99.90
30379;DHT22;17168;49.164;9.060;2023-04-25T09:52:04;10.00;99.90
30379;DHT22;17168;49.164;9.060;2023-04-25T09:54:36;10.00;99.90
30379;DHT22;17168;49.164;9.060;2023-04-25T09:57:12;10.00;99.90
30379;DHT22;17168;49.164;9.060;2023-04-25T09:59:46;10.00;99.90
30379;DHT22;17168;49.164;9.060;2023-04-25T10:02:22;10.00;99.90
30379;DHT22;17168;49.164;9.060;2023-04-25T10:04:58;10.00;99.90
30379;DHT22;17168;49.164;9.060;2023-04-25T10:07:31;10.00;99.90
30379;DHT22;17168;49.164;9.060;2023-04-25T10:10:06;10.10;99.90
30379;DHT22;17168;49.164;9.060;2023-04-25T10:12:39;10.10;99.90
30379;DHT22;17168;49.164;9.060;2023-04-25T10:15:12;10.20;99.90
30379;DHT22;17168;49.164;9.060;2023-04-25T10:17:49;10.20;99.90
30379;DHT22;17168;49.164;9.060;2023-04-25T10:20:25;10.30;99.90
30379;DHT22;17168;49.164;9.060;2023-04-25T10:23:09;10.30;99.90
30379;DHT22;17168;49.164;9.060;2023-04-25T10:25:43;10.30;99.90
30379;DHT22;17168;49.164;9.060;2023-04-25T10:28:15;10.30;99.90
30379;DHT22;17168;49.164;9.060;2023-04-25T10:30:57;10.40;99.90
30379;DHT22;17168;49.164;9.060;2023-04-25T10:33:33;10.40;99.90
30379;DHT22;17168;49.164;9.060;2023-04-25T10:36:13;10.50;99.90
30379;DHT22;17168;49.164;9.060;2023-04-25T10:38:46;10.50;99.90
30379;DHT22;17168;49.164;9.060;2023-04-25T10:41:21;10.60;99.90
30379;DHT22;17168;49.164;9.060;2023-04-25T10:44:04;10.60;99.90
30379;DHT22;17168;49.164;9.060;2023-04-25T10:46:38;10.60;99.90
30379;DHT22;17168;49.164;9.060;2023-04-25T10:49:33;10.60;99.90
30379;DHT22;17168;49.164;9.060;2023-04-25T10:52:17;10.70;99.90
30379;DHT22;17168;49.164;9.060;2023-04-25T10:54:56;10.70;99.90
30379;DHT22;17168;49.164;9.060;2023-04-25T10:57:36;10.80;99.90
30379;DHT22;17168;49.164;9.060;2023-04-25T11:00:19;10.90;99.90
30379;DHT22;17168;49.164;9.060;2023-04-25T11:03:02;11.00;99.90
30379;DHT22;17168;49.164;9.060;2023-04-25T11:05:41;11.10;99.90
30379;DHT22;17168;49.164;9.060;2023-04-25T11:08:47;11.30;99.90
30379;DHT22;17168;49.164;9.060;2023-04-25T11:11:23;11.30;99.90
30379;DHT22;17168;49.164;9.060;2023-04-25T11:13:55;11.40;99.90
30379;DHT22;17168;49.164;9.060;2023-04-25T11:16:29;11.50;99.90
30379;DHT22;17168;49.164;9.060;2023-04-25T11:19:06;11.50;99.90
30379;DHT22;17168;49.164;9.060;2023-04-25T11:21:38;11.60;99.90
30379;DHT22;17168;49.164;9.060;2023-04-25T11:24:18;11.60;99.90
30379;DHT22;17168;49.164;9.060;2023-04-25T11:26:51;11.70;99.90
30379;DHT22;17168;49.164;9.060;2023-04-25T11:29:34;11.80;99.90
30379;DHT22;17168;49.164;9.060;2023-04-25T11:32:09;11.90;99.90
30379;DHT22;17168;49.164;9.060;2023-04-25T11:34:52;12.00;99.90
30379;DHT22;17168;49.164;9.060;2023-04-25T11:37:24;12.10;99.90
30379;DHT22;17168;49.164;9.060;2023-04-25T11:39:59;12.20;99.90
30379;DHT22;17168;49.164;9.060;2023-04-25T11:42:31;12.30;99.90
30379;DHT22;17168;49.164;9.060;2023-04-25T11:45:05;12.40;99.90
30379;DHT22;17168;49.164;9.060;2023-04-25T11:47:38;12.50;99.90
30379;DHT22;17168;49.164;9.060;2023-04-25T11:50:10;12.60;99.90
30379;DHT22;17168;49.164;9.060;2023-04-25T11:52:47;12.60;99.90
30379;DHT22;17168;49.164;9.060;2023-04-25T11:55:22;12.60;99.90
30379;DHT22;17168;49.164;9.060;2023-04-25T11:57:54;12.60;99.90
30379;DHT22;17168;49.164;9.060;2023-04-25T12:00:26;12.60;99.90
30379;DHT22;17168;49.164;9.060;2023-04-25T12:03:04;12.60;99.90
30379;DHT22;17168;49.164;9.060;2023-04-25T12:05:36;12.70;99.50
30379;DHT22;17168;49.164;9.060;2023-04-25T12:08:11;12.70;98.90
30379;DHT22;17168;49.164;9.060;2023-04-25T12:10:46;12.90;98.70
30379;DHT22;17168;49.164;9.060;2023-04-25T12:13:31;12.90;98.40
30379;DHT22;17168;49.164;9.060;2023-04-25T12:16:04;13.00;97.80
30379;DHT22;17168;49.164;9.060;2023-04-25T12:18:39;13.00;97.60
30379;DHT22;17168;49.164;9.060;2023-04-25T12:21:13;13.00;96.90
30379;DHT22;17168;49.164;9.060;2023-04-25T12:23:48;13.10;96.70
30379;DHT22;17168;49.164;9.060;2023-04-25T12:26:23;13.20;96.40
30379;DHT22;17168;49.164;9.060;2023-04-25T12:29:01;13.40;95.90
30379;DHT22;17168;49.164;9.060;2023-04-25T12:31:33;13.50;95.60
30379;DHT22;17168;49.164;9.060;2023-04-25T12:34:06;13.60;95.20
30379;DHT22;17168;49.164;9.060;2023-04-25T12:36:39;13.60;94.60
30379;DHT22;17168;49.164;9.060;2023-04-25T12:39:15;13.60;94.10
30379;DHT22;17168;49.164;9.060;2023-04-25T12:41:51;13.70;94.00
30379;DHT22;17168;49.164;9.060;2023-04-25T12:44:26;13.90;93.70
30379;DHT22;17168;49.164;9.060;2023-04-25T12:46:58;13.90;93.50
30379;DHT22;17168;49.164;9.060;2023-04-25T12:49:32;14.10;93.30
30379;DHT22;17168;49.164;9.060;2023-04-25T12:52:05;14.10;93.10
30379;DHT22;17168;49.164;9.060;2023-04-25T12:54:37;14.10;92.60
30379;DHT22;17168;49.164;9.060;2023-04-25T12:57:22;14.20;92.20
30379;DHT22;17168;49.164;9.060;2023-04-25T12:59:54;14.10;91.70
30379;DHT22;17168;49.164;9.060;2023-04-25T13:02:26;14.00;91.30
30379;DHT22;17168;49.164;9.060;2023-04-25T13:04:58;14.00;91.60
30379;DHT22;17168;49.164;9.060;2023-04-25T13:07:30;14.20;91.90
30379;DHT22;17168;49.164;9.060;2023-04-25T13:10:06;14.50;92.10
30379;DHT22;17168;49.164;9.060;2023-04-25T13:12:41;14.80;92.30
30379;DHT22;17168;49.164;9.060;2023-04-25T13:15:14;15.20;92.50
30379;DHT22;17168;49.164;9.060;2023-04-25T13:17:47;15.40;92.70
30379;DHT22;17168;49.164;9.060;2023-04-25T13:20:19;15.50;91.90
30379;DHT22;17168;49.164;9.060;2023-04-25T13:22:54;15.40;91.40
30379;DHT22;17168;49.164;9.060;2023-04-25T13:25:27;15.60;91.20
30379;DHT22;17168;49.164;9.060;2023-04-25T13:28:02;15.80;90.10
30379;DHT22;17168;49.164;9.060;2023-04-25T13:30:37;16.20;92.70
30379;DHT22;17168;49.164;9.060;2023-04-25T13:33:09;16.60;92.00
30379;DHT22;17168;49.164;9.060;2023-04-25T13:35:42;16.70;92.40
30379;DHT22;17168;49.164;9.060;2023-04-25T13:38:14;17.00;93.90
30379;DHT22;17168;49.164;9.060;2023-04-25T13:40:50;17.10;89.10
30379;DHT22;17168;49.164;9.060;2023-04-25T13:43:26;16.80;87.90
30379;DHT22;17168;49.164;9.060;2023-04-25T13:45:58;16.80;86.60
30379;DHT22;17168;49.164;9.060;2023-04-25T13:48:31;16.90;85.30
30379;DHT22;17168;49.164;9.060;2023-04-25T13:51:03;17.30;84.70
30379;DHT22;17168;49.164;9.060;2023-04-25T13:53:35;17.60;84.30
30379;DHT22;17168;49.164;9.060;2023-04-25T13:56:07;17.70;84.30
30379;DHT22;17168;49.164;9.060;2023-04-25T13:58:42;17.60;83.80
30379;DHT22;17168;49.164;9.060;2023-04-25T14:01:15;17.50;82.60
30379;DHT22;17168;49.164;9.060;2023-04-25T14:03:47;17.20;81.20
30379;DHT22;17168;49.164;9.060;2023-04-25T14:06:19;17.00;80.80
30379;DHT22;17168;49.164;9.060;2023-04-25T14:08:55;16.70;80.90
30379;DHT22;17168;49.164;9.060;2023-04-25T14:11:28;16.60;80.90
30379;DHT22;17168;49.164;9.060;2023-04-25T14:14:03;16.40;80.70
30379;DHT22;17168;49.164;9.060;2023-04-25T14:16:35;16.40;80.20
30379;DHT22;17168;49.164;9.060;2023-04-25T14:19:07;16.40;80.50
30379;DHT22;17168;49.164;9.060;2023-04-25T14:21:39;16.50;80.50
30379;DHT22;17168;49.164;9.060;2023-04-25T14:24:14;16.70;80.10
30379;DHT22;17168;49.164;9.060;2023-04-25T14:26:46;16.90;80.10
30379;DHT22;17168;49.164;9.060;2023-04-25T14:29:21;17.10;80.00
30379;DHT22;17168;49.164;9.060;2023-04-25T14:31:54;17.20;78.90
30379;DHT22;17168;49.164;9.060;2023-04-25T14:34:26;17.20;77.90
30379;DHT22;17168;49.164;9.060;2023-04-25T14:36:58;17.10;77.00
30379;DHT22;17168;49.164;9.060;2023-04-25T14:39:30;16.90;75.80
30379;DHT22;17168;49.164;9.060;2023-04-25T14:42:03;16.90;76.20
30379;DHT22;17168;49.164;9.060;2023-04-25T14:44:38;17.00;76.20
30379;DHT22;17168;49.164;9.060;2023-04-25T14:47:10;16.90;75.60
30379;DHT22;17168;49.164;9.060;2023-04-25T14:49:42;16.80;74.80
30379;DHT22;17168;49.164;9.060;2023-04-25T14:52:15;16.60;74.80
30379;DHT22;17168;49.164;9.060;2023-04-25T14:54:47;16.40;74.40
30379;DHT22;17168;49.164;9.060;2023-04-25T14:57:19;16.30;74.40
30379;DHT22;17168;49.164;9.060;2023-04-25T14:59:54;16.20;74.10
30379;DHT22;17168;49.164;9.060;2023-04-25T15:02:27;16.10;73.80
30379;DHT22;17168;49.164;9.060;2023-04-25T15:04:59;16.00;73.70
30379;DHT22;17168;49.164;9.060;2023-04-25T15:07:34;15.80;73.20
30379;DHT22;17168;49.164;9.060;2023-04-25T15:10:10;15.70;73.30
30379;DHT22;17168;49.164;9.060;2023-04-25T15:12:47;15.60;73.10
30379;DHT22;17168;49.164;9.060;2023-04-25T15:15:22;15.60;73.50
30379;DHT22;17168;49.164;9.060;2023-04-25T15:17:57;15.50;73.70
30379;DHT22;17168;49.164;9.060;2023-04-25T15:20:32;15.50;73.50
30379;DHT22;17168;49.164;9.060;2023-04-25T15:23:04;15.40;73.60
30379;DHT22;17168;49.164;9.060;2023-04-25T15:25:37;15.30;73.60
30379;DHT22;17168;49.164;9.060;2023-04-25T15:28:09;15.20;73.70
30379;DHT22;17168;49.164;9.060;2023-04-25T15:30:44;15.10;73.60
30379;DHT22;17168;49.164;9.060;2023-04-25T15:33:17;15.10;73.60
30379;DHT22;17168;49.164;9.060;2023-04-25T15:35:49;15.00;73.50
30379;DHT22;17168;49.164;9.060;2023-04-25T15:38:21;14.90;73.80
30379;DHT22;17168;49.164;9.060;2023-04-25T15:40:53;14.80;73.80
30379;DHT22;17168;49.164;9.060;2023-04-25T15:43:25;14.80;73.90
30379;DHT22;17168;49.164;9.060;2023-04-25T15:46:00;14.80;73.60
30379;DHT22;17168;49.164;9.060;2023-04-25T15:48:32;14.80;73.60
30379;DHT22;17168;49.164;9.060;2023-04-25T15:51:05;14.70;73.20
30379;DHT22;17168;49.164;9.060;2023-04-25T15:53:37;14.60;73.10
30379;DHT22;17168;49.164;9.060;2023-04-25T15:56:09;14.60;72.90
30379;DHT22;17168;49.164;9.060;2023-04-25T15:58:42;14.50;72.80
30379;DHT22;17168;49.164;9.060;2023-04-25T16:01:17;14.50;72.70
30379;DHT22;17168;49.164;9.060;2023-04-25T16:03:49;14.40;72.50
30379;DHT22;17168;49.164;9.060;2023-04-25T16:06:29;14.40;72.60
30379;DHT22;17168;49.164;9.060;2023-04-25T16:09:01;14.40;72.70
30379;DHT22;17168;49.164;9.060;2023-04-25T16:11:33;14.30;72.70
30379;DHT22;17168;49.164;9.060;2023-04-25T16:14:07;14.20;72.70
30379;DHT22;17168;49.164;9.060;2023-04-25T16:16:42;14.10;72.60
30379;DHT22;17168;49.164;9.060;2023-04-25T16:19:15;14.00;72.70